Time;durP1;ratioP1;P1;durP2;ratioP2;P2;SDS_P1;SDS_P2;PMS_P1;PMS_P2;Temp;Humidity;BMP_temperature;BMP_pressure;BME280_temperature;BME280_humidity;BME280_pressure;Samples;Min_cycle;Max_cycle;Signal;HPM_P1;HPM_P2
2021/06/06 00:00:01;;;;;;;5.60;2.85;;;;;;;16.83;100.00;98821.39;1750286;79;21005;-65
2021/06/06 00:02:30;;;;;;;7.10;2.90;;;;;;;16.85;100.00;98824.86;1756419;80;21507;-65
2021/06/06 00:05:00;;;;;;;7.95;3.42;;;;;;;16.86;100.00;98833.26;1771889;79;21608;-65
2021/06/06 00:07:30;;;;;;;7.25;3.20;;;;;;;16.86;100.00;98833.26;1773352;79;20880;-64
2021/06/06 00:10:01;;;;;;;8.43;3.22;;;;;;;16.86;100.00;98833.26;1766012;79;21507;-65
2021/06/06 00:12:34;;;;;;;3.90;2.95;;;;;;;16.85;100.00;98832.39;1676455;83;21568;-65
2021/06/06 00:15:10;;;;;;;5.67;3.25;;;;;;;16.84;100.00;98833.31;1768210;79;21406;-63
2021/06/06 00:17:46;;;;;;;7.12;3.10;;;;;;;16.86;100.00;98830.59;1764172;79;21521;-64
2021/06/06 00:20:14;;;;;;;6.75;2.98;;;;;;;16.85;100.00;98827.06;1720471;82;21414;-65
2021/06/06 00:22:44;;;;;;;5.65;2.67;;;;;;;16.86;100.00;98831.47;1765753;79;21395;-65
2021/06/06 00:25:23;;;;;;;6.35;3.12;;;;;;;16.86;100.00;98828.80;1766730;79;21403;-65
2021/06/06 00:27:59;;;;;;;6.12;2.83;;;;;;;16.84;100.00;98823.99;1760375;79;21506;-64
2021/06/06 00:30:48;;;;;;;6.55;3.30;;;;;;;16.79;100.00;98823.30;1758414;79;21418;-62
2021/06/06 00:33:17;;;;;;;4.70;3.20;;;;;;;16.74;100.00;98827.92;1764140;79;21411;-65
2021/06/06 00:35:48;;;;;;;7.97;3.20;;;;;;;16.70;100.00;98833.41;1771027;79;21529;-64
2021/06/06 00:38:17;;;;;;;5.65;2.98;;;;;;;16.64;100.00;98828.68;1760087;81;20929;-64
2021/06/06 00:40:48;;;;;;;8.50;3.30;;;;;;;16.64;100.00;98828.68;1758104;80;20970;-64
2021/06/06 00:43:23;;;;;;;5.47;3.83;;;;;;;16.62;100.00;98825.20;1759063;79;21026;-64
2021/06/06 00:45:49;;;;;;;6.92;3.87;;;;;;;16.61;100.00;98824.80;1721519;82;21482;-64
2021/06/06 00:48:22;;;;;;;12.37;3.95;;;;;;;16.58;100.00;98823.57;1721447;82;21482;-65
2021/06/06 00:51:00;;;;;;;8.95;4.20;;;;;;;16.60;100.00;98822.19;1720029;83;21436;-65
2021/06/06 00:53:45;;;;;;;8.25;5.15;;;;;;;16.60;100.00;98822.19;1683285;84;21428;-65
2021/06/06 00:56:17;;;;;;;7.95;4.83;;;;;;;16.59;100.00;98832.43;1708848;84;21460;-65
2021/06/06 00:58:48;;;;;;;6.92;4.75;;;;;;;16.59;100.00;98829.77;1708925;84;20885;-65
2021/06/06 01:01:19;;;;;;;5.72;4.72;;;;;;;16.60;100.00;98831.50;1713992;83;21038;-64
2021/06/06 01:03:54;;;;;;;7.33;4.50;;;;;;;16.59;100.00;98836.42;1700970;83;21515;-64
2021/06/06 01:06:34;;;;;;;6.62;4.10;;;;;;;16.57;100.00;98827.16;1686778;83;21519;-65
2021/06/06 01:09:04;;;;;;;8.33;3.87;;;;;;;16.55;100.00;98826.31;1711552;83;20924;-64
2021/06/06 01:12:23;;;;;;;8.63;4.75;;;;;;;16.55;100.00;98825.44;1711850;83;21406;-65
2021/06/06 01:15:11;;;;;;;8.58;5.25;;;;;;;16.53;100.00;98825.49;1711329;83;21052;-65
2021/06/06 01:17:52;;;;;;;7.60;4.60;;;;;;;16.49;100.00;98822.99;1685765;83;21435;-64
2021/06/06 01:20:40;;;;;;;7.35;4.60;;;;;;;16.47;100.00;98825.71;1680980;85;21535;-64
2021/06/06 01:23:42;;;;;;;7.53;3.85;;;;;;;16.48;100.00;98823.92;1681783;85;21436;-64
2021/06/06 01:26:44;;;;;;;5.45;3.98;;;;;;;16.45;100.00;98814.70;1664337;83;21423;-64
2021/06/06 01:29:29;;;;;;;6.40;4.50;;;;;;;16.43;100.00;98822.75;1683069;82;21443;-63
2021/06/06 01:32:31;;;;;;;13.43;5.55;;;;;;;16.43;100.00;98822.75;1712116;83;20984;-63
2021/06/06 01:35:24;;;;;;;6.40;5.62;;;;;;;16.37;100.00;98829.16;1575327;86;20928;-63
2021/06/06 01:38:30;;;;;;;10.25;6.62;;;;;;;16.37;100.00;98829.16;1685212;84;21499;-63
2021/06/06 01:41:13;;;;;;;7.55;5.70;;;;;;;16.33;100.00;98826.19;1695909;84;21435;-64
2021/06/06 01:43:50;;;;;;;7.92;6.00;;;;;;;16.30;100.00;98828.96;1710429;82;20952;-65
2021/06/06 01:46:35;;;;;;;9.68;5.80;;;;;;;16.29;100.00;98827.22;1764651;80;21431;-65
2021/06/06 01:49:05;;;;;;;9.20;5.35;;;;;;;16.30;100.00;98826.76;1765687;79;21944;-64
2021/06/06 01:51:52;;;;;;;7.87;5.12;;;;;;;16.28;100.00;98829.94;1752508;79;21461;-62
2021/06/06 01:54:36;;;;;;;10.38;5.42;;;;;;;16.25;100.00;98827.37;1741944;80;21415;-62
2021/06/06 01:57:21;;;;;;;8.18;6.28;;;;;;;16.24;100.00;98829.63;1671392;85;21439;-62
2021/06/06 02:00:22;;;;;;;;;;;;;;;;;;;;;
2021/06/06 02:03:04;;;;;;;6.20;5.40;;;;;;;16.21;100.00;98826.61;1697015;83;21488;-62
2021/06/06 02:05:42;;;;;;;7.25;5.75;;;;;;;16.20;100.00;98824.00;1710538;83;21432;-63
2021/06/06 02:08:24;;;;;;;10.20;5.37;;;;;;;16.19;100.00;98826.26;1689101;83;21436;-62
2021/06/06 02:11:17;;;;;;;9.60;5.58;;;;;;;16.15;100.00;98822.83;1679394;83;21539;-63
2021/06/06 02:14:04;;;;;;;20.05;5.75;;;;;;;16.13;100.00;98833.12;1709148;82;21430;-62
2021/06/06 02:16:47;;;;;;;8.00;5.58;;;;;;;16.12;100.00;98828.72;1713993;82;21432;-62
2021/06/06 02:19:37;;;;;;;;;;;;;;;;;;;;;
2021/06/06 02:22:04;;;;;;;8.73;5.33;;;;;;;16.10;100.00;98834.55;1685482;83;21441;-66
2021/06/06 02:25:01;;;;;;;13.00;5.85;;;;;;;16.11;100.00;98833.17;1740575;80;21411;-64
2021/06/06 02:27:53;;;;;;;12.47;6.03;;;;;;;16.11;100.00;98835.83;1684436;83;21546;-65
2021/06/06 02:31:02;;;;;;;11.97;6.17;;;;;;;16.12;100.00;98831.38;1632738;86;21518;-65
2021/06/06 02:33:54;;;;;;;10.18;6.30;;;;;;;16.11;100.00;98832.30;1704090;80;21487;-65
2021/06/06 02:36:35;;;;;;;9.80;5.87;;;;;;;16.08;100.00;98831.91;1756842;81;21491;-64
2021/06/06 02:39:26;;;;;;;6.75;6.05;;;;;;;16.06;100.00;98829.76;1751878;81;21404;-64
2021/06/06 02:42:18;;;;;;;7.45;5.40;;;;;;;16.05;100.00;98824.03;1720283;83;21422;-65
2021/06/06 02:45:08;;;;;;;7.28;5.30;;;;;;;16.03;100.00;98823.21;1713242;83;21417;-65
2021/06/06 02:47:40;;;;;;;14.65;6.33;;;;;;;16.06;100.00;98823.11;1720300;82;20855;-65
2021/06/06 02:50:36;;;;;;;9.35;6.08;;;;;;;16.05;100.00;98823.57;1719241;83;21479;-65
2021/06/06 02:53:30;;;;;;;8.80;5.85;;;;;;;16.04;100.00;98827.61;1680960;83;20919;-65
2021/06/06 02:56:23;;;;;;;17.73;9.83;;;;;;;16.04;100.00;98824.95;1714055;82;21838;-65
2021/06/06 02:59:00;;;;;;;24.50;16.93;;;;;;;16.05;100.00;98830.22;1702988;82;21538;-66
2021/06/06 03:01:38;;;;;;;22.98;15.88;;;;;;;16.05;100.00;98822.70;1681746;82;21551;-65
2021/06/06 03:04:17;;;;;;;84.95;46.13;;;;;;;16.08;100.00;98816.41;1682961;84;20972;-65
2021/06/06 03:06:55;;;;;;;44.10;25.32;;;;;;;16.11;100.00;98813.67;1703122;83;21419;-66
2021/06/06 03:09:24;;;;;;;22.73;13.85;;;;;;;16.15;100.00;98816.64;1711893;83;21447;-66
2021/06/06 03:12:01;;;;;;;23.83;14.28;;;;;;;16.15;100.00;98812.19;1710155;83;21947;-65
2021/06/06 03:14:35;;;;;;;28.52;17.25;;;;;;;16.21;100.00;98816.43;1711418;83;21467;-64
2021/06/06 03:17:16;;;;;;;18.12;11.85;;;;;;;16.21;100.00;98816.43;1711626;83;21435;-65
2021/06/06 03:20:05;;;;;;;11.60;6.15;;;;;;;16.24;100.00;98813.66;1715868;83;20903;-64
2021/06/06 03:22:28;;;;;;;7.12;4.15;;;;;;;16.27;100.00;98817.09;1708868;82;21451;-65
2021/06/06 03:25:02;;;;;;;6.45;3.70;;;;;;;16.28;100.00;98813.97;1718985;82;22090;-65
2021/06/06 03:27:40;;;;;;;7.83;3.60;;;;;;;16.29;100.00;98820.56;1665476;83;21059;-64
2021/06/06 03:30:34;;;;;;;5.85;3.47;;;;;;;16.31;100.00;98817.39;1712086;83;21618;-64
2021/06/06 03:33:16;;;;;;;5.10;3.12;;;;;;;16.32;100.00;98819.13;1711303;83;21468;-65
2021/06/06 03:35:46;;;;;;;6.47;3.60;;;;;;;16.35;100.00;98816.36;1707156;83;20932;-65
2021/06/06 03:38:22;;;;;;;5.75;3.35;;;;;;;16.38;100.00;98811.39;1699157;84;21886;-65
2021/06/06 03:41:01;;;;;;;6.65;3.45;;;;;;;16.42;100.00;98812.16;1661429;84;21443;-65
2021/06/06 03:43:32;;;;;;;4.12;3.70;;;;;;;16.46;100.00;98809.79;1693306;84;21456;-65
2021/06/06 03:46:01;;;;;;;7.90;3.85;;;;;;;16.51;100.00;98802.51;1699313;84;20944;-65
2021/06/06 03:48:45;;;;;;;7.65;3.62;;;;;;;16.58;100.00;98811.59;1699285;84;21027;-66
2021/06/06 03:51:20;;;;;;;6.78;4.28;;;;;;;16.64;100.00;98808.70;1698429;84;21444;-65
2021/06/06 03:53:49;;;;;;;4.37;3.90;;;;;;;16.73;100.00;98806.66;1673369;84;21460;-65
2021/06/06 03:56:26;;;;;;;6.22;3.85;;;;;;;16.82;100.00;98807.66;1699422;84;20896;-64
2021/06/06 03:58:55;;;;;;;5.03;3.60;;;;;;;17.06;100.00;98810.77;1708953;82;21447;-63
2021/06/06 04:01:23;;;;;;;8.58;4.12;;;;;;;17.16;100.00;98811.29;1714041;82;20984;-64
2021/06/06 04:03:52;;;;;;;7.55;3.98;;;;;;;17.16;100.00;98811.29;1712458;82;21070;-64
2021/06/06 04:06:23;;;;;;;6.53;3.75;;;;;;;17.26;100.00;98810.88;1711955;82;20869;-64
2021/06/06 04:09:04;;;;;;;5.78;3.70;;;;;;;17.35;100.00;98808.32;1714407;82;20888;-65
2021/06/06 04:11:30;;;;;;;7.55;3.60;;;;;;;17.44;100.00;98804.42;1716169;82;21403;-65
2021/06/06 04:14:02;;;;;;;6.92;3.20;;;;;;;17.47;100.00;98799.84;1716454;83;20903;-65
2021/06/06 04:16:35;;;;;;;11.57;5.05;;;;;;;17.54;100.00;98805.36;1714707;82;21108;-65
2021/06/06 04:19:07;;;;;;;11.20;5.85;;;;;;;17.59;100.00;98797.18;1712294;82;21476;-65
2021/06/06 04:21:38;;;;;;;9.28;5.40;;;;;;;17.63;100.00;98800.12;1710355;82;20956;-65
2021/06/06 04:24:10;;;;;;;8.63;5.53;;;;;;;17.68;100.00;98802.64;1709102;84;21593;-65
2021/06/06 04:26:39;;;;;;;10.88;4.55;;;;;;;17.72;100.00;98805.13;1709781;83;21507;-65
2021/06/06 04:29:08;;;;;;;7.47;4.28;;;;;;;17.76;100.00;98800.06;1694581;83;21099;-66
2021/06/06 04:31:39;;;;;;;6.28;4.33;;;;;;;17.81;100.00;98801.21;1758986;79;21486;-65
2021/06/06 04:34:09;;;;;;;7.53;3.47;;;;;;;17.83;100.00;98807.35;1764955;79;20959;-65
2021/06/06 04:36:38;;;;;;;4.58;3.65;;;;;;;17.86;100.00;98804.09;1768965;79;20867;-64
2021/06/06 04:39:13;;;;;;;7.12;4.40;;;;;;;17.91;100.00;98808.77;1770578;79;21505;-64
2021/06/06 04:41:48;;;;;;;5.30;3.83;;;;;;;17.93;100.00;98807.38;1770928;79;21354;-64
2021/06/06 04:44:20;;;;;;;5.62;3.30;;;;;;;17.94;100.00;98797.97;1745427;81;20864;-63
2021/06/06 04:46:50;;;;;;;3.87;3.05;;;;;;;17.96;100.00;98799.70;1771468;79;21395;-65
2021/06/06 04:49:19;;;;;;;6.92;3.20;;;;;;;17.97;100.00;98796.97;1763680;79;21439;-64
2021/06/06 04:51:49;;;;;;;12.30;3.52;;;;;;;18.03;100.00;98797.22;1758147;80;21289;-65
2021/06/06 04:54:19;;;;;;;4.03;2.85;;;;;;;18.11;100.00;98798.63;1722291;83;21403;-65
2021/06/06 04:56:47;;;;;;;4.25;3.02;;;;;;;18.17;100.00;98799.70;1721137;82;21426;-66
2021/06/06 04:59:18;;;;;;;4.40;2.83;;;;;;;18.25;100.00;98793.57;1721394;82;20903;-65
2021/06/06 05:01:53;;;;;;;6.20;3.40;;;;;;;18.31;100.00;98792.91;1721955;83;20887;-65
2021/06/06 05:04:21;;;;;;;7.15;3.20;;;;;;;18.42;100.00;98791.97;1722126;82;20926;-66
2021/06/06 05:06:50;;;;;;;4.80;3.12;;;;;;;18.52;100.00;98797.34;1722013;82;21116;-66
2021/06/06 05:09:22;;;;;;;6.83;3.15;;;;;;;18.61;100.00;98800.08;1721888;82;21415;-66
2021/06/06 05:11:52;;;;;;;6.03;3.20;;;;;;;18.69;100.00;98802.84;1721538;83;20915;-65
2021/06/06 05:14:24;;;;;;;5.90;3.08;;;;;;;18.74;100.00;98792.81;1703903;84;20936;-66
2021/06/06 05:16:58;;;;;;;6.08;3.87;;;;;;;18.84;100.00;98790.13;1691593;84;20940;-64
2021/06/06 05:19:29;;;;;;;5.28;3.85;;;;;;;18.90;100.00;98784.11;1692548;84;21380;-64
2021/06/06 05:22:06;;;;;;;6.22;3.05;;;;;;;18.94;100.00;98784.39;1691061;84;21436;-65
2021/06/06 05:24:37;;;;;;;5.65;3.20;;;;;;;18.99;100.00;98780.58;1692445;84;20852;-65
2021/06/06 05:27:07;;;;;;;5.15;3.30;;;;;;;19.05;100.00;98785.63;1698665;84;20908;-65
2021/06/06 05:29:38;;;;;;;5.42;4.10;;;;;;;19.12;100.00;98781.73;1704156;84;20992;-64
2021/06/06 05:32:09;;;;;;;6.03;3.80;;;;;;;19.18;100.00;98770.76;1692877;84;21258;-65
2021/06/06 05:34:38;;;;;;;6.25;3.10;;;;;;;19.25;100.00;98765.98;1692122;84;20897;-65
2021/06/06 05:37:07;;;;;;;13.43;4.78;;;;;;;19.30;100.00;98773.79;1693036;84;20971;-65
2021/06/06 05:39:41;;;;;;;8.83;3.85;;;;;;;19.34;100.00;98771.37;1716719;82;21385;-64
2021/06/06 05:42:13;;;;;;;5.67;3.50;;;;;;;19.37;100.00;98773.89;1716998;82;20992;-64
2021/06/06 05:44:42;;;;;;;11.85;4.35;;;;;;;19.41;100.00;98778.19;1716485;82;20876;-66
2021/06/06 05:47:09;;;;;;;8.38;3.02;;;;;;;19.48;100.00;98782.30;1714529;82;20876;-65
2021/06/06 05:49:38;;;;;;;4.35;3.40;;;;;;;19.50;100.00;98781.28;1715073;82;20899;-64
2021/06/06 05:52:08;;;;;;;4.83;3.37;;;;;;;19.50;100.00;98773.73;1714699;82;20872;-65
2021/06/06 05:54:36;;;;;;;10.32;3.90;;;;;;;19.55;100.00;98770.87;1717241;82;21440;-65
2021/06/06 05:57:06;;;;;;;5.97;3.55;;;;;;;19.62;100.00;98772.30;1715126;83;21404;-65
2021/06/06 05:59:38;;;;;;;7.60;3.35;;;;;;;19.65;100.00;98759.64;1714823;82;21381;-64
2021/06/06 06:02:10;;;;;;;5.87;3.62;;;;;;;19.67;100.00;98760.43;1685687;82;21451;-64
2021/06/06 06:04:38;;;;;;;8.23;4.12;;;;;;;19.71;100.00;98754.45;1717151;82;21426;-64
2021/06/06 06:07:07;;;;;;;4.00;3.30;;;;;;;19.78;100.00;98757.22;1716444;82;20920;-65
2021/06/06 06:09:36;;;;;;;10.05;3.27;;;;;;;19.84;100.00;98754.71;1714737;82;20915;-64
2021/06/06 06:12:06;;;;;;;3.92;2.87;;;;;;;19.90;100.00;98762.47;1716749;82;20932;-64
2021/06/06 06:14:36;;;;;;;4.90;2.95;;;;;;;19.94;100.00;98760.90;1716722;83;21412;-64
2021/06/06 06:17:06;;;;;;;4.45;3.25;;;;;;;20.01;100.00;98766.34;1714721;83;20848;-64
2021/06/06 06:19:34;;;;;;;5.87;3.87;;;;;;;20.07;100.00;98770.05;1717148;82;20903;-66
2021/06/06 06:22:02;;;;;;;3.58;3.27;;;;;;;20.11;100.00;98766.27;1714593;82;21420;-65
2021/06/06 06:24:32;;;;;;;10.18;3.30;;;;;;;20.16;100.00;98774.53;1717040;82;21455;-65
2021/06/06 06:27:03;;;;;;;4.92;3.47;;;;;;;20.21;100.00;98764.45;1714606;83;20956;-66
2021/06/06 06:29:36;;;;;;;7.67;3.50;;;;;;;20.28;100.00;98767.20;1713482;82;20877;-65
2021/06/06 06:32:10;;;;;;;7.92;3.50;;;;;;;20.34;100.00;98763.77;1695228;82;21399;-65
2021/06/06 06:34:43;;;;;;;6.10;4.00;;;;;;;20.42;100.00;98756.23;1703955;84;21444;-66
2021/06/06 06:37:12;;;;;;;7.22;3.40;;;;;;;20.54;100.00;98760.55;1714982;82;21386;-66
2021/06/06 06:39:47;;;;;;;6.28;3.15;;;;;;;20.64;100.00;98759.13;1709234;82;20848;-66
2021/06/06 06:42:16;;;;;;;5.70;3.20;;;;;;;20.76;100.00;98755.78;1708317;82;21467;-65
2021/06/06 06:44:44;;;;;;;8.45;4.00;;;;;;;20.89;100.00;98757.36;1709271;82;20880;-65
2021/06/06 06:47:15;;;;;;;4.83;3.20;;;;;;;20.99;100.00;98756.77;1708517;84;21379;-65
2021/06/06 06:49:45;;;;;;;6.05;3.55;;;;;;;21.11;100.00;98750.34;1709062;82;20970;-66
2021/06/06 06:52:17;;;;;;;5.20;3.53;;;;;;;21.22;100.00;98754.16;1708657;82;20888;-65
2021/06/06 06:54:48;;;;;;;5.42;3.50;;;;;;;21.34;100.00;98746.83;1707831;82;21423;-65
2021/06/06 06:57:16;;;;;;;8.10;2.98;;;;;;;21.47;100.00;98755.53;1735308;80;20904;-68
2021/06/06 06:59:44;;;;;;;5.17;3.20;;;;;;;21.53;100.00;98753.36;1749236;80;21091;-68
2021/06/06 07:02:12;;;;;;;5.03;3.10;;;;;;;21.56;100.00;98757.22;1744543;80;20881;-69
2021/06/06 07:04:40;;;;;;;5.30;3.30;;;;;;;21.57;100.00;98749.55;1744955;80;20981;-66
2021/06/06 07:07:08;;;;;;;7.35;3.12;;;;;;;21.58;100.00;98755.31;1744701;80;20881;-67
2021/06/06 07:09:37;;;;;;;3.80;3.00;;;;;;;21.56;100.00;98754.53;1744979;82;21506;-67
2021/06/06 07:12:08;;;;;;;8.63;3.40;;;;;;;21.59;100.00;98750.80;1743743;80;21471;-66
2021/06/06 07:14:38;;;;;;;7.10;2.92;;;;;;;21.61;100.00;98748.90;1744800;80;20940;-66
2021/06/06 07:17:06;;;;;;;5.45;3.20;;;;;;;21.59;100.00;98745.44;1744793;80;21393;-67
2021/06/06 07:19:35;;;;;;;3.37;2.80;;;;;;;21.61;100.00;98742.19;1744856;81;20900;-67
2021/06/06 07:22:08;;;;;;;5.25;2.85;;;;;;;21.67;100.00;98737.81;1744699;80;21440;-68
2021/06/06 07:24:38;;;;;;;8.68;3.55;;;;;;;21.78;100.00;98746.62;1709165;82;21098;-66
2021/06/06 07:27:07;;;;;;;6.33;3.10;;;;;;;21.91;100.00;98745.81;1708857;82;20848;-67
2021/06/06 07:32:23;;;;;;;5.00;3.10;;;;;;;22.26;100.00;98741.56;1794116;77;28427;-68
2021/06/06 07:34:52;;;;;;;4.83;3.15;;;;;;;22.40;100.00;98740.25;1758893;80;21592;-66
2021/06/06 07:37:21;;;;;;;5.22;3.12;;;;;;;22.60;100.00;98739.90;1762149;81;21146;-68
2021/06/06 07:39:50;;;;;;;3.55;3.20;;;;;;;22.75;100.00;98743.49;1756217;80;20915;-68
2021/06/06 07:42:18;;;;;;;5.25;2.70;;;;;;;22.89;100.00;98735.94;1748341;79;21415;-69
2021/06/06 07:44:48;;;;;;;5.00;2.67;;;;;;;23.04;100.00;98733.63;1766001;79;21487;-69
2021/06/06 07:47:16;;;;;;;6.15;2.58;;;;;;;23.18;100.00;98728.73;1760543;81;20972;-68
2021/06/06 07:49:46;;;;;;;6.65;2.58;;;;;;;23.32;100.00;98736.78;1737822;81;20964;-72
2021/06/06 07:52:14;;;;;;;4.03;2.60;;;;;;;23.46;100.00;98737.23;1761193;80;20958;-69
2021/06/06 07:54:41;;;;;;;3.20;2.52;;;;;;;23.55;100.00;98738.02;1762044;80;21474;-68
2021/06/06 07:57:10;;;;;;;5.50;2.30;;;;;;;23.65;100.00;98737.83;1762049;80;20924;-67
2021/06/06 07:59:38;;;;;;;4.75;2.62;;;;;;;23.78;98.62;98729.80;1762698;80;20876;-68
2021/06/06 08:02:07;;;;;;;5.53;2.40;;;;;;;23.91;98.64;98724.45;1762175;80;21291;-68
2021/06/06 08:04:36;;;;;;;3.98;2.40;;;;;;;24.06;97.61;98727.45;1767450;79;20862;-68
2021/06/06 08:07:05;;;;;;;4.87;2.22;;;;;;;24.19;95.30;98725.68;1764728;80;20899;-67
2021/06/06 08:09:32;;;;;;;5.28;2.25;;;;;;;24.28;90.13;98721.03;1763451;79;20938;-67
2021/06/06 08:12:01;;;;;;;7.17;2.30;;;;;;;24.39;89.05;98725.20;1762246;80;21012;-67
2021/06/06 08:14:30;;;;;;;6.15;2.22;;;;;;;24.50;89.16;98725.80;1762517;80;21460;-63
2021/06/06 08:17:00;;;;;;;4.83;2.05;;;;;;;24.61;89.67;98718.34;1762139;80;20920;-63
2021/06/06 08:19:30;;;;;;;6.30;3.00;;;;;;;24.71;86.20;98716.72;1762214;80;21594;-63
2021/06/06 08:21:58;;;;;;;3.92;2.27;;;;;;;24.81;84.55;98719.14;1762285;80;21002;-70
2021/06/06 08:24:27;;;;;;;7.25;2.47;;;;;;;24.91;83.12;98715.30;1762397;80;20963;-67
2021/06/06 08:26:55;;;;;;;3.95;2.10;;;;;;;24.99;81.05;98716.52;1761071;81;21149;-69
2021/06/06 08:29:24;;;;;;;4.17;2.10;;;;;;;25.09;82.09;98721.66;1761744;80;20942;-68
2021/06/06 08:31:52;;;;;;;6.78;2.30;;;;;;;25.14;81.17;98715.92;1757703;80;20990;-67
2021/06/06 08:34:21;;;;;;;2.77;1.95;;;;;;;25.22;81.69;98720.27;1776950;79;20921;-65
2021/06/06 08:36:50;;;;;;;13.38;2.33;;;;;;;25.30;78.68;98720.58;1774548;79;21478;-66
2021/06/06 08:39:27;;;;;;;5.92;2.83;;;;;;;25.37;77.26;98716.94;1738089;81;21977;-66
2021/06/06 08:42:10;;;;;;;4.10;1.85;;;;;;;25.46;75.92;98721.66;1743182;81;20917;-69
2021/06/06 08:44:42;;;;;;;2.22;2.02;;;;;;;25.56;77.00;98717.83;1784737;77;21010;-68
2021/06/06 08:47:18;;;;;;;4.50;2.00;;;;;;;25.64;73.13;98723.03;1769413;79;20967;-67
2021/06/06 08:49:50;;;;;;;4.70;2.37;;;;;;;25.66;66.89;98718.41;1763192;80;20974;-67
2021/06/06 08:52:43;;;;;;;5.78;1.67;;;;;;;25.68;66.33;98721.00;1760283;80;20902;-68
2021/06/06 08:55:29;;;;;;;5.80;1.95;;;;;;;25.69;63.09;98722.23;1737869;80;21563;-66
2021/06/06 08:58:17;;;;;;;4.08;1.87;;;;;;;25.71;62.73;98720.28;1761099;80;20965;-65
2021/06/06 09:00:48;;;;;;;5.58;2.12;;;;;;;25.73;61.50;98720.16;1765654;79;21005;-66
2021/06/06 09:03:21;;;;;;;10.82;2.65;;;;;;;25.76;61.66;98722.63;1762361;80;21058;-65
2021/06/06 09:06:08;;;;;;;5.37;2.30;;;;;;;25.85;62.12;98717.89;1764915;80;21756;-65
2021/06/06 09:08:38;;;;;;;4.47;1.90;;;;;;;25.93;61.59;98714.12;1749193;80;20857;-63
2021/06/06 09:11:14;;;;;;;4.12;1.90;;;;;;;26.07;62.03;98711.75;1764891;79;21486;-63
2021/06/06 09:13:43;;;;;;;2.42;1.67;;;;;;;26.19;60.21;98708.59;1769309;79;21434;-66
2021/06/06 09:16:17;;;;;;;3.58;1.80;;;;;;;26.27;56.52;98707.50;1731076;81;20886;-64
2021/06/06 09:18:48;;;;;;;9.20;2.00;;;;;;;26.28;54.17;98697.06;1761225;80;21477;-64
2021/06/06 09:21:20;;;;;;;3.10;1.50;;;;;;;26.26;52.21;98697.18;1762746;80;20973;-63
2021/06/06 09:23:51;;;;;;;4.08;1.80;;;;;;;26.28;52.04;98688.46;1730756;81;20937;-66
2021/06/06 09:26:25;;;;;;;3.60;1.75;;;;;;;26.30;50.30;98687.85;1736199;79;21010;-63
2021/06/06 09:29:13;;;;;;;4.15;1.75;;;;;;;26.31;49.79;98681.46;1754863;79;20948;-66
2021/06/06 09:31:41;;;;;;;5.28;1.90;;;;;;;26.32;50.16;98679.62;1781888;79;21839;-66
2021/06/06 09:34:09;;;;;;;81.63;49.08;;;;;;;26.39;51.33;98676.84;1793095;78;20906;-65
2021/06/06 09:36:40;;;;;;;41.28;25.00;;;;;;;26.49;50.14;98670.22;1797390;79;20965;-66
2021/06/06 09:39:18;;;;;;;74.32;64.60;;;;;;;26.59;49.24;98669.40;1797854;78;20989;-66
2021/06/06 09:41:53;;;;;;;17.98;11.95;;;;;;;26.70;48.11;98660.43;1792533;78;20868;-66
2021/06/06 09:44:27;;;;;;;26.27;23.05;;;;;;;26.83;47.88;98657.11;1791064;78;21999;-66
2021/06/06 09:47:14;;;;;;;41.83;35.15;;;;;;;26.95;47.56;98658.82;1791300;80;20942;-64
2021/06/06 09:49:46;;;;;;;25.30;18.52;;;;;;;27.09;47.70;98650.99;1791330;80;20860;-64
2021/06/06 09:52:29;;;;;;;45.23;37.15;;;;;;;27.22;46.31;98657.62;1791464;79;21414;-64
2021/06/06 09:55:01;;;;;;;13.90;9.45;;;;;;;27.30;46.28;98659.20;1780163;78;21457;-63
2021/06/06 09:57:36;;;;;;;64.47;52.83;;;;;;;27.31;45.96;98651.94;1789668;80;21333;-63
2021/06/06 10:00:16;;;;;;;31.90;22.17;;;;;;;27.26;44.32;98653.67;1791165;78;21529;-63
2021/06/06 10:02:49;;;;;;;28.52;17.98;;;;;;;27.18;44.49;98649.38;1791464;78;20847;-62
2021/06/06 10:05:29;;;;;;;39.18;29.40;;;;;;;27.05;43.74;98648.66;1791591;80;21450;-65
2021/06/06 10:08:26;;;;;;;26.07;20.20;;;;;;;26.91;43.06;98646.52;1788085;78;21442;-64
2021/06/06 10:11:13;;;;;;;11.22;8.98;;;;;;;26.78;43.68;98649.84;1726074;80;21742;-63
2021/06/06 10:13:47;;;;;;;26.07;21.15;;;;;;;26.55;44.90;98654.88;1791373;78;20868;-62
2021/06/06 10:16:18;;;;;;;24.40;14.40;;;;;;;26.29;47.99;98659.58;1791727;78;20919;-64
2021/06/06 10:19:01;;;;;;;19.50;12.23;;;;;;;26.00;51.80;98666.73;1791413;78;21386;-64
2021/06/06 10:21:34;;;;;;;16.32;6.17;;;;;;;25.70;56.89;98660.96;1791359;80;20816;-64
2021/06/06 10:24:13;;;;;;;7.75;4.50;;;;;;;25.38;61.98;98659.27;1791336;78;21048;-64
2021/06/06 10:27:00;;;;;;;18.50;4.95;;;;;;;25.02;67.01;98673.11;1791259;80;20939;-65
2021/06/06 10:29:39;;;;;;;14.93;7.60;;;;;;;24.56;71.99;98684.06;1791352;78;21403;-61
2021/06/06 10:32:26;;;;;;;74.40;47.65;;;;;;;24.05;75.85;98679.92;1778906;80;22158;-67
2021/06/06 10:35:22;;;;;;;74.70;50.85;;;;;;;23.70;78.89;98681.83;1765677;80;21090;-66
2021/06/06 10:37:53;;;;;;;19.90;14.15;;;;;;;23.43;85.13;98669.66;1766161;80;21096;-66
2021/06/06 10:40:46;;;;;;;37.20;25.45;;;;;;;23.18;90.52;98662.34;1765908;81;21442;-66
2021/06/06 10:43:45;;;;;;;51.75;33.08;;;;;;;22.96;94.62;98659.28;1765832;80;20947;-67
2021/06/06 10:46:30;;;;;;;15.98;10.53;;;;;;;22.79;100.00;98659.46;1746311;81;21560;-65
2021/06/06 10:49:24;;;;;;;16.10;10.28;;;;;;;22.64;100.00;98657.23;1765788;80;20924;-66
2021/06/06 10:52:04;;;;;;;22.90;14.40;;;;;;;22.51;100.00;98656.27;1760793;80;21423;-67
2021/06/06 10:54:39;;;;;;;8.63;4.45;;;;;;;22.47;100.00;98670.87;1744345;81;21027;-65
2021/06/06 10:57:15;;;;;;;19.35;11.28;;;;;;;22.43;100.00;98682.28;1765589;80;21022;-67
2021/06/06 11:00:05;;;;;;;15.93;10.65;;;;;;;22.44;100.00;98688.05;1765623;80;21546;-65
2021/06/06 11:02:57;;;;;;;17.85;11.48;;;;;;;22.45;100.00;98692.46;1765535;80;21482;-67
2021/06/06 11:05:57;;;;;;;5.75;3.85;;;;;;;22.43;100.00;98690.34;1765612;80;21558;-66
2021/06/06 11:08:37;;;;;;;5.10;2.50;;;;;;;22.42;100.00;98694.48;1765613;81;20920;-67
2021/06/06 11:11:22;;;;;;;5.33;1.72;;;;;;;22.45;100.00;98692.46;1766249;80;20911;-68
2021/06/06 11:14:12;;;;;;;2.72;1.62;;;;;;;22.52;100.00;98692.47;1765348;80;20990;-67
2021/06/06 11:16:46;;;;;;;3.05;1.72;;;;;;;22.60;100.00;98696.89;1748063;79;21398;-69
2021/06/06 11:19:22;;;;;;;2.17;1.17;;;;;;;22.64;100.00;98690.84;1735943;81;21153;-69
2021/06/06 11:22:06;;;;;;;4.08;1.65;;;;;;;22.66;100.00;98693.43;1739598;81;21428;-69
2021/06/06 11:24:44;;;;;;;4.40;1.05;;;;;;;22.66;100.00;98679.98;1724667;81;20915;-69
2021/06/06 11:27:25;;;;;;;2.58;1.20;;;;;;;22.66;100.00;98677.30;1735703;81;20943;-69
2021/06/06 11:30:03;;;;;;;4.45;1.60;;;;;;;22.62;100.00;98679.31;1735875;82;20880;-69
2021/06/06 11:33:14;;;;;;;3.52;1.35;;;;;;;22.55;100.00;98676.63;1739382;82;21542;-69
2021/06/06 11:35:49;;;;;;;2.37;0.90;;;;;;;22.49;100.00;98684.59;1734000;81;21006;-69
2021/06/06 11:38:42;;;;;;;3.33;1.30;;;;;;;22.47;100.00;98682.96;1739303;81;20999;-69
2021/06/06 11:41:25;;;;;;;2.25;1.17;;;;;;;22.46;100.00;98683.44;1739367;81;20970;-69
2021/06/06 11:44:17;;;;;;;2.12;1.00;;;;;;;22.46;100.00;98681.23;1736029;81;20936;-69
2021/06/06 11:47:06;;;;;;;1.72;1.02;;;;;;;22.47;100.00;98676.23;1738133;81;21857;-68
2021/06/06 11:49:57;;;;;;;3.12;1.65;;;;;;;22.54;100.00;98675.77;1717214;81;21014;-68
2021/06/06 11:52:35;;;;;;;1.80;1.05;;;;;;;22.67;100.00;98673.17;1737877;81;20903;-68
2021/06/06 11:55:29;;;;;;;2.98;1.22;;;;;;;22.85;100.00;98672.55;1719118;82;20937;-69
